< < Back
Terminal Aerodrome Forecast


Current Version              Previous Versions:   1  2  3  4  5  6  7  8  9  

Terminal Aerodrome Forecast

245
FTUS42 KGSP 271100
TAFHKY
TAF
KHKY 271120Z 2712/2812 33005KT P6SM FEW250
     FM280200 24003KT P6SM SKC
     FM280800 00000KT P6SM FEW250=



Latest METAR

708
SAUS70 KWBC 281500 RRD
MTRHKY
METAR KHKY 281453Z 30003KT 10SM CLR 27/18 A3007 RMK AO2 SLP160 T02720183
51002


USA.gov is the U.S. government's official web portal to all federal, state and local government web resources and services.